sensor_id;sensor_type;location;lat;lon;timestamp;pressure;altitude;pressure_sealevel;temperature;humidity
64521;BME280;50896;46.714;17.322;2023-05-25T00:00:17;100633.75;;;16.77;100.00
64521;BME280;50896;46.714;17.322;2023-05-25T00:02:46;100634.97;;;16.74;100.00
64521;BME280;50896;46.714;17.322;2023-05-25T00:05:13;100635.59;;;16.76;100.00
64521;BME280;50896;46.714;17.322;2023-05-25T00:07:40;100638.66;;;16.66;100.00
64521;BME280;50896;46.714;17.322;2023-05-25T00:10:07;100638.19;;;16.63;100.00
64521;BME280;50896;46.714;17.322;2023-05-25T00:12:34;100623.47;;;16.52;100.00
64521;BME280;50896;46.714;17.322;2023-05-25T00:15:06;100631.91;;;16.49;100.00
64521;BME280;50896;46.714;17.322;2023-05-25T00:17:33;100630.25;;;16.48;100.00
64521;BME280;50896;46.714;17.322;2023-05-25T00:20:03;100646.59;;;16.53;100.00
64521;BME280;50896;46.714;17.322;2023-05-25T00:22:34;100637.94;;;16.57;100.00
64521;BME280;50896;46.714;17.322;2023-05-25T00:25:04;100625.94;;;16.47;100.00
64521;BME280;50896;46.714;17.322;2023-05-25T00:27:32;100641.22;;;16.53;100.00
64521;BME280;50896;46.714;17.322;2023-05-25T00:29:59;100630.34;;;16.61;100.00
64521;BME280;50896;46.714;17.322;2023-05-25T00:32:26;100635.56;;;16.69;98.02
64521;BME280;50896;46.714;17.322;2023-05-25T00:34:53;100641.34;;;16.73;90.06
64521;BME280;50896;46.714;17.322;2023-05-25T00:37:20;100636.56;;;16.68;89.99
64521;BME280;50896;46.714;17.322;2023-05-25T00:39:48;100640.94;;;16.69;85.00
64521;BME280;50896;46.714;17.322;2023-05-25T00:42:15;100632.22;;;16.61;86.51
64521;BME280;50896;46.714;17.322;2023-05-25T00:44:42;100634.53;;;16.70;85.15
64521;BME280;50896;46.714;17.322;2023-05-25T00:47:09;100633.28;;;16.66;83.08
64521;BME280;50896;46.714;17.322;2023-05-25T00:49:37;100642.16;;;16.67;84.29
64521;BME280;50896;46.714;17.322;2023-05-25T00:52:04;100641.19;;;16.74;85.23
64521;BME280;50896;46.714;17.322;2023-05-25T00:54:31;100645.22;;;16.64;87.26
64521;BME280;50896;46.714;17.322;2023-05-25T00:57:02;100639.34;;;16.47;89.76
64521;BME280;50896;46.714;17.322;2023-05-25T01:02:08;100654.41;;;16.48;92.31
64521;BME280;50896;46.714;17.322;2023-05-25T01:04:40;100660.94;;;16.38;95.31
64521;BME280;50896;46.714;17.322;2023-05-25T01:07:16;100660.56;;;16.20;100.00
64521;BME280;50896;46.714;17.322;2023-05-25T01:09:44;100664.03;;;16.14;100.00
64521;BME280;50896;46.714;17.322;2023-05-25T01:12:14;100666.53;;;16.15;100.00
64521;BME280;50896;46.714;17.322;2023-05-25T01:14:42;100657.00;;;16.13;100.00
64521;BME280;50896;46.714;17.322;2023-05-25T01:17:09;100673.69;;;16.08;100.00
64521;BME280;50896;46.714;17.322;2023-05-25T01:19:36;100658.94;;;15.97;100.00
64521;BME280;50896;46.714;17.322;2023-05-25T01:24:48;100664.22;;;15.91;100.00
64521;BME280;50896;46.714;17.322;2023-05-25T01:30:09;100674.63;;;16.00;100.00
64521;BME280;50896;46.714;17.322;2023-05-25T01:32:40;100663.78;;;15.87;100.00
64521;BME280;50896;46.714;17.322;2023-05-25T01:35:08;100661.69;;;15.82;100.00
64521;BME280;50896;46.714;17.322;2023-05-25T01:37:35;100672.94;;;15.78;100.00
64521;BME280;50896;46.714;17.322;2023-05-25T01:40:06;100671.94;;;15.79;100.00
64521;BME280;50896;46.714;17.322;2023-05-25T01:42:34;100672.78;;;15.79;100.00
64521;BME280;50896;46.714;17.322;2023-05-25T01:45:03;100676.94;;;15.82;100.00
64521;BME280;50896;46.714;17.322;2023-05-25T01:48:03;100677.28;;;15.79;100.00
64521;BME280;50896;46.714;17.322;2023-05-25T01:50:37;100689.22;;;15.76;100.00
64521;BME280;50896;46.714;17.322;2023-05-25T01:53:19;100686.53;;;15.76;100.00
64521;BME280;50896;46.714;17.322;2023-05-25T01:55:55;100683.72;;;15.99;97.32
64521;BME280;50896;46.714;17.322;2023-05-25T01:58:25;100685.19;;;16.02;96.31
64521;BME280;50896;46.714;17.322;2023-05-25T02:00:54;100687.72;;;16.10;97.05
64521;BME280;50896;46.714;17.322;2023-05-25T02:03:22;100699.63;;;16.01;100.00
64521;BME280;50896;46.714;17.322;2023-05-25T02:05:49;100691.88;;;15.91;100.00
64521;BME280;50896;46.714;17.322;2023-05-25T02:08:16;100696.63;;;15.74;100.00
64521;BME280;50896;46.714;17.322;2023-05-25T02:10:43;100692.78;;;15.62;100.00
64521;BME280;50896;46.714;17.322;2023-05-25T02:13:11;100700.25;;;15.66;100.00
64521;BME280;50896;46.714;17.322;2023-05-25T02:15:38;100710.13;;;15.66;100.00
64521;BME280;50896;46.714;17.322;2023-05-25T02:18:04;100717.09;;;15.60;100.00
64521;BME280;50896;46.714;17.322;2023-05-25T02:20:31;100716.50;;;15.65;100.00
64521;BME280;50896;46.714;17.322;2023-05-25T02:22:58;100719.09;;;15.58;100.00
64521;BME280;50896;46.714;17.322;2023-05-25T02:25:25;100708.13;;;15.53;100.00
64521;BME280;50896;46.714;17.322;2023-05-25T02:27:53;100715.00;;;15.41;100.00
64521;BME280;50896;46.714;17.322;2023-05-25T02:30:20;100722.09;;;15.33;100.00
64521;BME280;50896;46.714;17.322;2023-05-25T02:32:47;100722.75;;;15.20;100.00
64521;BME280;50896;46.714;17.322;2023-05-25T02:35:14;100739.66;;;15.06;100.00
64521;BME280;50896;46.714;17.322;2023-05-25T02:37:41;100735.56;;;14.95;100.00
64521;BME280;50896;46.714;17.322;2023-05-25T02:40:08;100733.91;;;14.94;100.00
64521;BME280;50896;46.714;17.322;2023-05-25T02:42:36;100739.63;;;14.91;100.00
64521;BME280;50896;46.714;17.322;2023-05-25T02:45:03;100743.41;;;14.82;100.00
64521;BME280;50896;46.714;17.322;2023-05-25T02:47:33;100749.13;;;14.79;100.00
64521;BME280;50896;46.714;17.322;2023-05-25T02:50:00;100750.03;;;14.86;100.00
64521;BME280;50896;46.714;17.322;2023-05-25T02:52:27;100751.63;;;14.95;100.00
64521;BME280;50896;46.714;17.322;2023-05-25T02:54:57;100742.97;;;15.08;100.00
64521;BME280;50896;46.714;17.322;2023-05-25T02:57:30;100747.88;;;15.04;100.00
64521;BME280;50896;46.714;17.322;2023-05-25T02:59:58;100750.72;;;14.88;100.00
64521;BME280;50896;46.714;17.322;2023-05-25T03:02:25;100750.59;;;14.81;100.00
64521;BME280;50896;46.714;17.322;2023-05-25T03:04:52;100754.03;;;14.90;100.00
64521;BME280;50896;46.714;17.322;2023-05-25T03:07:19;100751.25;;;14.83;100.00
64521;BME280;50896;46.714;17.322;2023-05-25T03:09:47;100758.34;;;14.76;100.00
64521;BME280;50896;46.714;17.322;2023-05-25T03:12:14;100753.84;;;14.77;100.00
64521;BME280;50896;46.714;17.322;2023-05-25T03:14:41;100755.38;;;14.71;100.00
64521;BME280;50896;46.714;17.322;2023-05-25T03:17:09;100746.06;;;14.67;100.00
64521;BME280;50896;46.714;17.322;2023-05-25T03:19:36;100750.22;;;14.69;100.00
64521;BME280;50896;46.714;17.322;2023-05-25T03:22:03;100751.31;;;14.52;100.00
64521;BME280;50896;46.714;17.322;2023-05-25T03:24:32;100744.69;;;14.48;100.00
64521;BME280;50896;46.714;17.322;2023-05-25T03:27:01;100750.88;;;14.48;100.00
64521;BME280;50896;46.714;17.322;2023-05-25T03:29:28;100755.50;;;14.55;100.00
64521;BME280;50896;46.714;17.322;2023-05-25T03:31:55;100753.94;;;14.60;100.00
64521;BME280;50896;46.714;17.322;2023-05-25T03:34:24;100758.69;;;14.73;100.00
64521;BME280;50896;46.714;17.322;2023-05-25T03:36:52;100763.31;;;14.64;100.00
64521;BME280;50896;46.714;17.322;2023-05-25T03:39:20;100768.97;;;14.69;100.00
64521;BME280;50896;46.714;17.322;2023-05-25T03:41:49;100767.47;;;14.67;100.00
64521;BME280;50896;46.714;17.322;2023-05-25T03:44:17;100765.78;;;14.66;100.00
64521;BME280;50896;46.714;17.322;2023-05-25T03:46:43;100775.50;;;14.67;100.00
64521;BME280;50896;46.714;17.322;2023-05-25T03:49:11;100775.72;;;14.57;100.00
64521;BME280;50896;46.714;17.322;2023-05-25T03:51:41;100774.81;;;14.65;100.00
64521;BME280;50896;46.714;17.322;2023-05-25T03:54:08;100776.16;;;14.61;100.00
64521;BME280;50896;46.714;17.322;2023-05-25T03:56:35;100782.16;;;14.71;100.00
64521;BME280;50896;46.714;17.322;2023-05-25T03:59:03;100776.63;;;14.73;100.00
64521;BME280;50896;46.714;17.322;2023-05-25T04:01:30;100795.41;;;14.64;100.00
64521;BME280;50896;46.714;17.322;2023-05-25T04:03:57;100789.69;;;14.67;100.00
64521;BME280;50896;46.714;17.322;2023-05-25T04:06:24;100803.06;;;14.67;100.00
64521;BME280;50896;46.714;17.322;2023-05-25T04:08:51;100792.31;;;14.76;100.00
64521;BME280;50896;46.714;17.322;2023-05-25T04:11:18;100786.31;;;14.74;100.00
64521;BME280;50896;46.714;17.322;2023-05-25T04:13:48;100793.47;;;14.96;100.00
64521;BME280;50896;46.714;17.322;2023-05-25T04:16:15;100801.13;;;14.99;100.00
64521;BME280;50896;46.714;17.322;2023-05-25T04:18:42;100789.13;;;14.95;100.00
64521;BME280;50896;46.714;17.322;2023-05-25T04:21:09;100802.63;;;15.02;100.00
64521;BME280;50896;46.714;17.322;2023-05-25T04:23:36;100807.78;;;15.03;100.00
64521;BME280;50896;46.714;17.322;2023-05-25T04:26:04;100810.47;;;15.03;100.00
64521;BME280;50896;46.714;17.322;2023-05-25T04:28:31;100809.91;;;15.08;100.00
64521;BME280;50896;46.714;17.322;2023-05-25T04:31:17;100814.50;;;14.99;100.00
64521;BME280;50896;46.714;17.322;2023-05-25T04:33:57;100815.00;;;15.18;100.00
64521;BME280;50896;46.714;17.322;2023-05-25T04:36:30;100812.25;;;15.26;100.00
64521;BME280;50896;46.714;17.322;2023-05-25T04:39:00;100816.50;;;15.35;100.00
64521;BME280;50896;46.714;17.322;2023-05-25T04:41:32;100801.16;;;15.29;100.00
64521;BME280;50896;46.714;17.322;2023-05-25T04:44:03;100809.19;;;15.29;100.00
64521;BME280;50896;46.714;17.322;2023-05-25T04:46:43;100798.47;;;15.44;100.00
64521;BME280;50896;46.714;17.322;2023-05-25T04:49:18;100797.81;;;15.57;100.00
64521;BME280;50896;46.714;17.322;2023-05-25T04:51:45;100809.94;;;15.68;100.00
64521;BME280;50896;46.714;17.322;2023-05-25T04:54:13;100810.78;;;15.68;100.00
64521;BME280;50896;46.714;17.322;2023-05-25T04:56:40;100809.94;;;15.68;100.00
64521;BME280;50896;46.714;17.322;2023-05-25T04:59:07;100814.91;;;15.71;100.00
64521;BME280;50896;46.714;17.322;2023-05-25T05:01:34;100809.97;;;15.83;100.00
64521;BME280;50896;46.714;17.322;2023-05-25T05:04:08;100809.47;;;15.79;100.00
64521;BME280;50896;46.714;17.322;2023-05-25T05:06:37;100807.72;;;15.86;100.00
64521;BME280;50896;46.714;17.322;2023-05-25T05:09:05;100818.91;;;15.90;100.00
64521;BME280;50896;46.714;17.322;2023-05-25T05:11:32;100812.53;;;15.91;100.00
64521;BME280;50896;46.714;17.322;2023-05-25T05:13:59;100824.25;;;16.05;100.00
64521;BME280;50896;46.714;17.322;2023-05-25T05:16:27;100819.78;;;16.12;100.00
64521;BME280;50896;46.714;17.322;2023-05-25T05:19:00;100818.81;;;16.20;100.00
64521;BME280;50896;46.714;17.322;2023-05-25T05:21:28;100816.72;;;16.15;100.00
64521;BME280;50896;46.714;17.322;2023-05-25T05:23:55;100814.63;;;16.11;100.00
64521;BME280;50896;46.714;17.322;2023-05-25T05:26:22;100804.00;;;16.24;100.00
64521;BME280;50896;46.714;17.322;2023-05-25T05:28:49;100813.69;;;16.40;100.00
64521;BME280;50896;46.714;17.322;2023-05-25T05:31:20;100812.47;;;16.43;100.00
64521;BME280;50896;46.714;17.322;2023-05-25T05:33:48;100807.34;;;16.48;100.00
64521;BME280;50896;46.714;17.322;2023-05-25T05:36:16;100814.00;;;16.52;100.00
64521;BME280;50896;46.714;17.322;2023-05-25T05:38:43;100816.94;;;16.57;100.00
64521;BME280;50896;46.714;17.322;2023-05-25T05:41:12;100818.28;;;16.68;100.00
64521;BME280;50896;46.714;17.322;2023-05-25T05:43:44;100817.69;;;16.72;100.00
64521;BME280;50896;46.714;17.322;2023-05-25T05:46:12;100809.25;;;16.75;100.00
64521;BME280;50896;46.714;17.322;2023-05-25T05:48:39;100817.84;;;16.86;100.00
64521;BME280;50896;46.714;17.322;2023-05-25T05:51:06;100813.75;;;16.90;100.00
64521;BME280;50896;46.714;17.322;2023-05-25T05:53:33;100824.38;;;16.98;100.00
64521;BME280;50896;46.714;17.322;2023-05-25T05:56:03;100832.56;;;17.18;100.00
64521;BME280;50896;46.714;17.322;2023-05-25T05:58:30;100831.16;;;17.22;100.00
64521;BME280;50896;46.714;17.322;2023-05-25T06:00:58;100835.56;;;17.37;100.00
64521;BME280;50896;46.714;17.322;2023-05-25T06:03:26;100838.31;;;17.43;99.56
64521;BME280;50896;46.714;17.322;2023-05-25T06:05:55;100841.00;;;17.43;95.23
64521;BME280;50896;46.714;17.322;2023-05-25T06:08:22;100837.34;;;17.51;96.08
64521;BME280;50896;46.714;17.322;2023-05-25T06:10:49;100842.50;;;17.53;99.03
64521;BME280;50896;46.714;17.322;2023-05-25T06:13:16;100846.22;;;17.52;100.00
64521;BME280;50896;46.714;17.322;2023-05-25T06:15:43;100835.03;;;17.48;100.00
64521;BME280;50896;46.714;17.322;2023-05-25T06:18:15;100850.94;;;17.50;100.00
64521;BME280;50896;46.714;17.322;2023-05-25T06:20:42;100844.94;;;17.48;100.00
64521;BME280;50896;46.714;17.322;2023-05-25T06:23:10;100857.69;;;17.67;100.00
64521;BME280;50896;46.714;17.322;2023-05-25T06:25:39;100860.03;;;17.84;99.77
64521;BME280;50896;46.714;17.322;2023-05-25T06:28:06;100857.63;;;17.96;95.71
64521;BME280;50896;46.714;17.322;2023-05-25T06:30:33;100859.81;;;17.79;100.00
64521;BME280;50896;46.714;17.322;2023-05-25T06:33:01;100848.75;;;17.95;98.16
64521;BME280;50896;46.714;17.322;2023-05-25T06:35:28;100862.69;;;17.77;98.99
64521;BME280;50896;46.714;17.322;2023-05-25T06:37:55;100853.69;;;17.91;95.12
64521;BME280;50896;46.714;17.322;2023-05-25T06:40:22;100855.72;;;17.89;98.14
64521;BME280;50896;46.714;17.322;2023-05-25T06:42:49;100856.63;;;17.62;100.00
64521;BME280;50896;46.714;17.322;2023-05-25T06:45:34;100865.22;;;17.85;100.00
64521;BME280;50896;46.714;17.322;2023-05-25T06:48:01;100869.44;;;18.01;96.27
64521;BME280;50896;46.714;17.322;2023-05-25T06:50:28;100866.03;;;17.86;96.99
64521;BME280;50896;46.714;17.322;2023-05-25T06:52:56;100868.22;;;17.69;96.42
64521;BME280;50896;46.714;17.322;2023-05-25T06:55:25;100870.81;;;17.84;100.00
64521;BME280;50896;46.714;17.322;2023-05-25T06:57:52;100872.00;;;17.74;96.92
64521;BME280;50896;46.714;17.322;2023-05-25T07:00:19;100862.84;;;18.04;97.80
64521;BME280;50896;46.714;17.322;2023-05-25T07:02:46;100863.88;;;18.03;95.66
64521;BME280;50896;46.714;17.322;2023-05-25T07:05:14;100872.66;;;18.18;99.58
64521;BME280;50896;46.714;17.322;2023-05-25T07:07:41;100869.75;;;18.20;93.87
64521;BME280;50896;46.714;17.322;2023-05-25T07:10:08;100867.91;;;18.27;92.94
64521;BME280;50896;46.714;17.322;2023-05-25T07:12:34;100868.69;;;18.14;91.90
64521;BME280;50896;46.714;17.322;2023-05-25T07:15:01;100872.06;;;18.30;92.11
64521;BME280;50896;46.714;17.322;2023-05-25T07:17:28;100876.00;;;18.40;91.99
64521;BME280;50896;46.714;17.322;2023-05-25T07:19:57;100881.00;;;18.43;91.46
64521;BME280;50896;46.714;17.322;2023-05-25T07:22:24;100875.84;;;18.42;88.98
64521;BME280;50896;46.714;17.322;2023-05-25T07:24:51;100871.69;;;18.46;88.40
64521;BME280;50896;46.714;17.322;2023-05-25T07:27:18;100875.44;;;18.58;89.63
64521;BME280;50896;46.714;17.322;2023-05-25T07:29:45;100874.56;;;18.31;92.28
64521;BME280;50896;46.714;17.322;2023-05-25T07:32:12;100873.59;;;18.59;88.86
64521;BME280;50896;46.714;17.322;2023-05-25T07:34:38;100883.78;;;18.77;88.65
64521;BME280;50896;46.714;17.322;2023-05-25T07:37:05;100881.28;;;18.69;85.53
64521;BME280;50896;46.714;17.322;2023-05-25T07:39:32;100881.28;;;18.82;84.61
64521;BME280;50896;46.714;17.322;2023-05-25T07:41:59;100875.09;;;18.88;85.01
64521;BME280;50896;46.714;17.322;2023-05-25T07:44:27;100890.03;;;18.91;83.36
64521;BME280;50896;46.714;17.322;2023-05-25T07:46:55;100875.94;;;19.09;82.53
64521;BME280;50896;46.714;17.322;2023-05-25T07:49:22;100882.38;;;19.01;81.08
64521;BME280;50896;46.714;17.322;2023-05-25T07:51:49;100886.06;;;18.93;81.86
64521;BME280;50896;46.714;17.322;2023-05-25T07:54:16;100886.09;;;19.07;80.51
64521;BME280;50896;46.714;17.322;2023-05-25T07:56:42;100887.75;;;19.28;81.52
64521;BME280;50896;46.714;17.322;2023-05-25T07:59:09;100881.53;;;19.21;78.90
64521;BME280;50896;46.714;17.322;2023-05-25T08:01:36;100878.41;;;19.24;78.94
64521;BME280;50896;46.714;17.322;2023-05-25T08:04:04;100887.75;;;19.08;80.87
64521;BME280;50896;46.714;17.322;2023-05-25T08:06:31;100885.03;;;19.21;78.78
64521;BME280;50896;46.714;17.322;2023-05-25T08:09:01;100886.50;;;19.37;76.13
64521;BME280;50896;46.714;17.322;2023-05-25T08:11:28;100878.41;;;19.44;78.84
64521;BME280;50896;46.714;17.322;2023-05-25T08:13:56;100885.47;;;19.38;74.91
64521;BME280;50896;46.714;17.322;2023-05-25T08:16:23;100881.31;;;19.29;77.54
64521;BME280;50896;46.714;17.322;2023-05-25T08:18:50;100889.41;;;19.29;79.44
64521;BME280;50896;46.714;17.322;2023-05-25T08:21:18;100878.19;;;19.39;78.38
64521;BME280;50896;46.714;17.322;2023-05-25T08:23:45;100878.41;;;19.44;78.07
64521;BME280;50896;46.714;17.322;2023-05-25T08:26:11;100871.75;;;19.53;75.52
64521;BME280;50896;46.714;17.322;2023-05-25T08:28:41;100876.31;;;19.66;76.17
64521;BME280;50896;46.714;17.322;2023-05-25T08:31:08;100875.88;;;19.69;74.74
64521;BME280;50896;46.714;17.322;2023-05-25T08:33:36;100881.50;;;19.41;76.28
64521;BME280;50896;46.714;17.322;2023-05-25T08:36:03;100874.25;;;19.41;76.05
64521;BME280;50896;46.714;17.322;2023-05-25T08:38:30;100876.72;;;19.56;77.90
64521;BME280;50896;46.714;17.322;2023-05-25T08:41:05;100881.31;;;19.29;76.02
64521;BME280;50896;46.714;17.322;2023-05-25T08:43:32;100887.91;;;19.46;75.31
64521;BME280;50896;46.714;17.322;2023-05-25T08:46:04;100885.22;;;19.46;74.86
64521;BME280;50896;46.714;17.322;2023-05-25T08:48:33;100894.75;;;19.49;74.58
64521;BME280;50896;46.714;17.322;2023-05-25T08:51:10;100889.78;;;19.66;73.65
64521;BME280;50896;46.714;17.322;2023-05-25T08:53:39;100893.88;;;19.75;71.68
64521;BME280;50896;46.714;17.322;2023-05-25T08:56:15;100898.53;;;19.35;73.69
64521;BME280;50896;46.714;17.322;2023-05-25T08:58:49;100900.19;;;19.42;75.94
64521;BME280;50896;46.714;17.322;2023-05-25T09:01:21;100890.81;;;19.65;76.52
64521;BME280;50896;46.714;17.322;2023-05-25T09:03:50;100898.66;;;19.80;75.42
64521;BME280;50896;46.714;17.322;2023-05-25T09:06:17;100895.78;;;19.61;72.49
64521;BME280;50896;46.714;17.322;2023-05-25T09:08:45;100899.31;;;19.82;72.71
64521;BME280;50896;46.714;17.322;2023-05-25T09:11:12;100899.88;;;20.04;74.46
64521;BME280;50896;46.714;17.322;2023-05-25T09:13:44;100906.19;;;20.23;73.54
64521;BME280;50896;46.714;17.322;2023-05-25T09:16:11;100894.84;;;20.08;71.32
64521;BME280;50896;46.714;17.322;2023-05-25T09:18:38;100899.00;;;20.04;70.04
64521;BME280;50896;46.714;17.322;2023-05-25T09:21:05;100899.50;;;19.74;73.37
64521;BME280;50896;46.714;17.322;2023-05-25T09:23:34;100905.72;;;19.74;73.43
64521;BME280;50896;46.714;17.322;2023-05-25T09:26:00;100901.13;;;19.95;75.08
64521;BME280;50896;46.714;17.322;2023-05-25T09:28:27;100893.63;;;20.04;75.48
64521;BME280;50896;46.714;17.322;2023-05-25T09:30:54;100897.28;;;20.23;75.26
64521;BME280;50896;46.714;17.322;2023-05-25T09:33:21;100897.63;;;20.33;73.52
64521;BME280;50896;46.714;17.322;2023-05-25T09:35:50;100893.88;;;20.41;73.23
64521;BME280;50896;46.714;17.322;2023-05-25T09:38:17;100893.22;;;20.45;75.13
64521;BME280;50896;46.714;17.322;2023-05-25T09:40:44;100892.44;;;20.38;72.81
64521;BME280;50896;46.714;17.322;2023-05-25T09:43:12;100890.53;;;20.45;73.21
64521;BME280;50896;46.714;17.322;2023-05-25T09:45:54;100884.75;;;20.42;73.39
64521;BME280;50896;46.714;17.322;2023-05-25T09:48:21;100894.66;;;20.48;74.33
64521;BME280;50896;46.714;17.322;2023-05-25T09:50:50;100896.91;;;20.58;74.82
64521;BME280;50896;46.714;17.322;2023-05-25T09:53:17;100904.38;;;20.62;73.20
64521;BME280;50896;46.714;17.322;2023-05-25T09:55:47;100894.44;;;20.49;71.45
64521;BME280;50896;46.714;17.322;2023-05-25T09:58:21;100890.97;;;20.42;72.41
64521;BME280;50896;46.714;17.322;2023-05-25T10:00:53;100897.59;;;20.46;70.87
64521;BME280;50896;46.714;17.322;2023-05-25T10:03:21;100891.81;;;20.43;71.47
64521;BME280;50896;46.714;17.322;2023-05-25T10:05:48;100898.22;;;20.48;71.47
64521;BME280;50896;46.714;17.322;2023-05-25T10:08:17;100890.38;;;20.40;72.34
64521;BME280;50896;46.714;17.322;2023-05-25T10:10:47;100897.69;;;20.26;72.49
64521;BME280;50896;46.714;17.322;2023-05-25T10:13:19;100885.38;;;20.37;71.29
64521;BME280;50896;46.714;17.322;2023-05-25T10:15:51;100884.75;;;20.42;70.47
64521;BME280;50896;46.714;17.322;2023-05-25T10:18:23;100892.81;;;20.48;70.40
64521;BME280;50896;46.714;17.322;2023-05-25T10:20:56;100891.94;;;20.55;71.11
64521;BME280;50896;46.714;17.322;2023-05-25T10:23:34;100885.47;;;20.62;70.41
64521;BME280;50896;46.714;17.322;2023-05-25T10:26:04;100893.56;;;20.62;73.13
64521;BME280;50896;46.714;17.322;2023-05-25T10:28:36;100889.75;;;20.77;71.99
64521;BME280;50896;46.714;17.322;2023-05-25T10:31:05;100889.94;;;20.82;70.98
64521;BME280;50896;46.714;17.322;2023-05-25T10:33:32;100892.91;;;20.67;71.80
64521;BME280;50896;46.714;17.322;2023-05-25T10:36:02;100885.44;;;20.69;69.46
64521;BME280;50896;46.714;17.322;2023-05-25T10:38:38;100883.31;;;20.78;68.10
64521;BME280;50896;46.714;17.322;2023-05-25T10:41:08;100881.16;;;20.87;69.91
64521;BME280;50896;46.714;17.322;2023-05-25T10:43:37;100873.66;;;20.89;67.72
64521;BME280;50896;46.714;17.322;2023-05-25T10:46:05;100875.59;;;21.07;68.74
64521;BME280;50896;46.714;17.322;2023-05-25T10:48:44;100867.38;;;21.20;70.21
64521;BME280;50896;46.714;17.322;2023-05-25T10:51:11;100881.59;;;21.34;68.30
64521;BME280;50896;46.714;17.322;2023-05-25T10:53:43;100868.78;;;21.48;69.38
64521;BME280;50896;46.714;17.322;2023-05-25T10:56:13;100867.31;;;21.52;67.12
64521;BME280;50896;46.714;17.322;2023-05-25T10:58:42;100863.50;;;21.34;62.89
64521;BME280;50896;46.714;17.322;2023-05-25T11:01:11;100862.25;;;21.56;63.40
64521;BME280;50896;46.714;17.322;2023-05-25T11:06:18;100851.84;;;21.59;64.77
64521;BME280;50896;46.714;17.322;2023-05-25T11:08:57;100854.81;;;21.70;65.27
64521;BME280;50896;46.714;17.322;2023-05-25T11:17:13;100842.47;;;22.11;63.84
64521;BME280;50896;46.714;17.322;2023-05-25T11:19:41;100840.63;;;21.93;61.81
64521;BME280;50896;46.714;17.322;2023-05-25T11:22:14;100838.16;;;21.91;62.96
64521;BME280;50896;46.714;17.322;2023-05-25T11:24:42;100830.88;;;22.22;62.33
64521;BME280;50896;46.714;17.322;2023-05-25T11:27:12;100829.84;;;22.05;60.64
64521;BME280;50896;46.714;17.322;2023-05-25T11:29:39;100831.44;;;21.75;61.09
64521;BME280;50896;46.714;17.322;2023-05-25T11:32:13;100836.03;;;22.24;61.39
64521;BME280;50896;46.714;17.322;2023-05-25T11:34:40;100830.75;;;22.47;59.84
64521;BME280;50896;46.714;17.322;2023-05-25T11:37:16;100827.78;;;22.18;60.30
64521;BME280;50896;46.714;17.322;2023-05-25T11:39:47;100837.09;;;22.41;59.81
64521;BME280;50896;46.714;17.322;2023-05-25T11:42:15;100828.78;;;22.66;59.80
64521;BME280;50896;46.714;17.322;2023-05-25T11:44:43;100831.19;;;22.98;58.91
64521;BME280;50896;46.714;17.322;2023-05-25T11:47:13;100824.38;;;23.19;57.67
64521;BME280;50896;46.714;17.322;2023-05-25T11:49:45;100815.63;;;23.41;56.30
64521;BME280;50896;46.714;17.322;2023-05-25T11:52:13;100821.38;;;23.57;56.56
64521;BME280;50896;46.714;17.322;2023-05-25T11:54:41;100813.00;;;23.58;55.17
64521;BME280;50896;46.714;17.322;2023-05-25T11:59:48;100808.47;;;23.87;54.64
64521;BME280;50896;46.714;17.322;2023-05-25T12:02:16;100799.84;;;23.79;54.20
64521;BME280;50896;46.714;17.322;2023-05-25T12:04:56;100803.97;;;23.93;54.87
64521;BME280;50896;46.714;17.322;2023-05-25T12:07:25;100800.47;;;23.69;56.47
64521;BME280;50896;46.714;17.322;2023-05-25T12:10:09;100802.84;;;24.06;55.56
64521;BME280;50896;46.714;17.322;2023-05-25T12:12:44;100802.06;;;23.41;56.21
64521;BME280;50896;46.714;17.322;2023-05-25T12:15:14;100801.09;;;23.59;54.50
64521;BME280;50896;46.714;17.322;2023-05-25T12:17:49;100790.59;;;23.51;53.70
64521;BME280;50896;46.714;17.322;2023-05-25T12:20:17;100794.78;;;23.70;54.10
64521;BME280;50896;46.714;17.322;2023-05-25T12:22:45;100786.59;;;23.94;54.71
64521;BME280;50896;46.714;17.322;2023-05-25T12:25:13;100782.19;;;24.05;53.05
64521;BME280;50896;46.714;17.322;2023-05-25T12:27:43;100779.63;;;24.78;51.45
64521;BME280;50896;46.714;17.322;2023-05-25T12:30:10;100773.75;;;25.87;50.15
64521;BME280;50896;46.714;17.322;2023-05-25T12:32:57;100770.00;;;26.80;46.96
64521;BME280;50896;46.714;17.322;2023-05-25T12:35:28;100767.88;;;27.35;44.11
64521;BME280;50896;46.714;17.322;2023-05-25T12:38:20;100759.94;;;30.10;39.00
64521;BME280;50896;46.714;17.322;2023-05-25T12:41:03;100753.94;;;31.88;35.03
64521;BME280;50896;46.714;17.322;2023-05-25T12:43:38;100747.97;;;33.41;32.86
64521;BME280;50896;46.714;17.322;2023-05-25T12:46:04;100747.91;;;33.68;31.73
64521;BME280;50896;46.714;17.322;2023-05-25T12:48:31;100746.34;;;33.12;32.74
64521;BME280;50896;46.714;17.322;2023-05-25T12:51:01;100756.84;;;31.10;35.65
64521;BME280;50896;46.714;17.322;2023-05-25T12:53:27;100753.09;;;28.72;40.55
64521;BME280;50896;46.714;17.322;2023-05-25T12:56:00;100746.25;;;27.28;43.47
64521;BME280;50896;46.714;17.322;2023-05-25T12:58:30;100748.09;;;25.83;47.91
64521;BME280;50896;46.714;17.322;2023-05-25T13:00:57;100749.06;;;25.05;49.70
64521;BME280;50896;46.714;17.322;2023-05-25T13:03:24;100743.50;;;24.61;51.57